Fort Washington, Maryland
Current Conditions -  °F | °C
As of 12:52 PM on Wednesday 28 Jan 2015 (Local Time) from KDCA Reporting Station
Clear Clear  
Wind Chill: 26°   Ceiling: Unl
Heat Index: 35°   Visibility: 10mi
Dew Point:   Wind: 15mph
Humidity: 31%   Direction: 340°NNW
Pressure: 30.24"   Gusts: NA
Location:  38.74°N, 77°W
Report Text: KDCA 281752Z 34013KT 10SM CLR 02/M14 A3024 RMK AO2 SLP239 T00171139 10022 21044 58001
Loading
Personal Weather Stations






























Interactive Weather Map New forecast layout! Learn more

10-Day Weather Forecast

Advertisements
Track Severe Weather on mobile